Time;durP1;ratioP1;P1;durP2;ratioP2;P2;SDS_P1;SDS_P2;PMS_P1;PMS_P2;Temp;Humidity;BMP_temperature;BMP_pressure;BME280_temperature;BME280_humidity;BME280_pressure;Samples;Min_cycle;Max_cycle;Signal;HPM_P1;HPM_P2
2023/01/05 00:01:57;;;;;;;6.70;3.80;;;;;;;2.43;67.69;99790.77;24496;1324;3029106;-65
2023/01/05 00:04:26;;;;;;;9.40;4.10;;;;;;;2.45;67.45;99785.18;24466;1326;3057001;-64
2023/01/05 00:06:56;;;;;;;8.50;4.10;;;;;;;2.49;67.08;99788.38;24405;1326;3025834;-63
2023/01/05 00:09:25;;;;;;;7.50;3.40;;;;;;;2.45;67.55;99787.77;24465;1328;3028209;-64
2023/01/05 00:23:08;;;;;;;12.20;5.50;;;;;;;2.33;67.69;99764.88;24463;1335;3053207;-60
2023/01/05 00:25:39;;;;;;;12.80;6.10;;;;;;;2.32;67.90;99760.22;24413;1335;3028652;-65
2023/01/05 00:28:08;;;;;;;18.20;6.70;;;;;;;2.26;68.16;99758.98;24386;1335;3027787;-60
2023/01/05 00:30:42;;;;;;;13.20;6.30;;;;;;;2.06;68.92;99753.52;24409;1334;3027859;-63
2023/01/05 00:33:13;;;;;;;13.70;5.90;;;;;;;2.14;68.89;99740.06;24453;1335;3058821;-60
2023/01/05 00:35:42;;;;;;;14.30;6.30;;;;;;;2.12;69.06;99741.99;24427;1335;3026281;-63
2023/01/05 00:38:11;;;;;;;16.90;6.90;;;;;;;2.10;69.50;99739.11;24493;1325;3026222;-65
2023/01/05 00:40:41;;;;;;;23.50;8.00;;;;;;;2.14;69.25;99732.62;24452;1335;3056024;-64
2023/01/05 00:43:10;;;;;;;14.50;7.10;;;;;;;2.17;69.34;99738.59;24457;1327;3028270;-61
2023/01/05 00:45:41;;;;;;;20.40;7.80;;;;;;;2.19;69.44;99742.19;24462;1336;3050033;-63
2023/01/05 00:48:10;;;;;;;16.20;7.60;;;;;;;2.22;69.49;99745.23;24429;1337;3025546;-62
2023/01/05 00:50:39;;;;;;;19.90;8.60;;;;;;;2.19;69.61;99742.70;24455;1335;3028667;-62
2023/01/05 00:53:08;;;;;;;31.50;12.40;;;;;;;2.21;69.41;99736.42;24425;1335;3050141;-61
2023/01/05 00:55:38;;;;;;;31.30;11.30;;;;;;;2.22;69.78;99725.73;24384;1335;3025930;-61
2023/01/05 00:58:06;;;;;;;23.40;9.80;;;;;;;2.36;69.21;99710.19;24498;1327;3028849;-64
2023/01/05 01:00:37;;;;;;;25.80;9.70;;;;;;;2.34;69.04;99711.77;24402;1339;3050151;-65
2023/01/05 01:03:07;;;;;;;23.10;9.20;;;;;;;2.29;69.67;99711.38;24444;1332;3028295;-61
2023/01/05 01:05:37;;;;;;;25.50;8.30;;;;;;;2.24;70.06;99706.80;24430;1327;3067899;-61
2023/01/05 01:08:06;;;;;;;25.90;9.40;;;;;;;2.29;69.73;99707.91;24440;1335;3027444;-62
2023/01/05 01:10:38;;;;;;;20.80;7.40;;;;;;;2.32;69.51;99702.83;24458;1335;3049265;-65
2023/01/05 01:13:07;;;;;;;15.80;7.60;;;;;;;2.20;70.23;99711.73;24449;1336;3026956;-67
2023/01/05 01:15:36;;;;;;;18.80;7.70;;;;;;;2.30;69.75;99706.33;24449;1339;3028666;-64
2023/01/05 01:18:05;;;;;;;16.80;7.20;;;;;;;2.11;70.29;99701.91;24400;1329;3028070;-63
2023/01/05 01:20:36;;;;;;;15.80;6.50;;;;;;;2.20;70.19;99688.08;24430;1332;3068073;-65
2023/01/05 01:23:05;;;;;;;18.60;7.20;;;;;;;2.17;70.28;99680.19;24459;1332;3026394;-65
2023/01/05 01:25:36;;;;;;;13.60;6.70;;;;;;;2.16;70.44;99679.69;24452;1331;3028112;-62
2023/01/05 01:28:06;;;;;;;15.60;6.90;;;;;;;2.08;70.79;99675.56;24373;1342;3069227;-63
2023/01/05 01:30:37;;;;;;;16.60;6.40;;;;;;;2.18;70.46;99673.08;24456;1342;3029217;-64
2023/01/05 01:33:07;;;;;;;15.00;7.30;;;;;;;2.14;70.69;99676.80;24455;1342;3026421;-63
2023/01/05 01:35:36;;;;;;;14.10;6.10;;;;;;;2.21;70.35;99677.85;24482;1334;3030209;-63
2023/01/05 01:38:06;;;;;;;19.90;7.60;;;;;;;2.22;70.44;99669.37;24427;1339;3051567;-64
2023/01/05 01:40:45;;;;;;;17.00;6.80;;;;;;;2.19;70.83;99661.29;24450;1324;3028281;-63
2023/01/05 01:43:19;;;;;;;17.10;7.10;;;;;;;2.05;71.68;99644.85;24406;1336;3069460;-61
2023/01/05 01:45:48;;;;;;;18.20;7.30;;;;;;;2.04;71.71;99640.56;24509;1334;3049364;-63
2023/01/05 01:48:22;;;;;;;18.90;6.80;;;;;;;1.98;72.14;99643.30;24467;1335;3057199;-65
2023/01/05 01:50:52;;;;;;;17.80;6.30;;;;;;;2.05;71.77;99637.43;24419;1330;3028592;-65
2023/01/05 01:53:36;;;;;;;16.60;6.30;;;;;;;2.02;71.90;99630.06;24446;1329;3048875;-61
2023/01/05 01:56:07;;;;;;;11.60;5.60;;;;;;;1.87;72.57;99622.28;24376;1339;3056654;-61
2023/01/05 01:58:36;;;;;;;12.30;5.40;;;;;;;1.90;72.71;99608.59;24383;1333;3027566;-62
2023/01/05 02:01:05;;;;;;;13.90;6.50;;;;;;;1.87;72.83;99608.63;24450;1327;3028587;-64
2023/01/05 02:03:34;;;;;;;16.80;6.70;;;;;;;1.65;73.75;99613.45;24452;1340;3055509;-62
2023/01/05 02:06:00;;;;;;;15.60;6.60;;;;;;;1.83;72.93;99620.81;23809;1342;3028234;-62
2023/01/05 02:08:32;;;;;;;13.10;5.90;;;;;;;1.78;73.28;99621.61;24515;1333;3050124;-61
2023/01/05 02:11:17;;;;;;;8.30;5.00;;;;;;;1.66;74.11;99623.43;24386;1335;3028516;-64
2023/01/05 02:14:08;;;;;;;5.80;3.60;;;;;;;1.69;74.19;99618.88;24450;1339;3052451;-64
2023/01/05 02:16:58;;;;;;;4.80;3.10;;;;;;;1.70;73.91;99621.09;24546;1335;3053630;-63
2023/01/05 02:19:47;;;;;;;4.20;2.90;;;;;;;1.74;73.70;99615.84;24461;1337;3052282;-62
2023/01/05 02:22:25;;;;;;;6.90;3.20;;;;;;;1.58;74.34;99607.02;24491;1332;3052294;-63
2023/01/05 02:25:17;;;;;;;6.00;3.40;;;;;;;1.58;74.19;99605.30;24476;1339;3049199;-64
2023/01/05 02:28:01;;;;;;;4.70;3.30;;;;;;;1.68;73.51;99594.38;24457;1333;3068763;-61
2023/01/05 02:30:58;;;;;;;5.70;3.40;;;;;;;1.53;74.16;99592.96;24462;1339;3050436;-63
2023/01/05 02:33:43;;;;;;;5.20;3.00;;;;;;;1.47;74.39;99595.69;24431;1339;3056908;-63
2023/01/05 02:36:19;;;;;;;5.10;3.50;;;;;;;1.39;75.09;99592.92;24478;1333;3052214;-62
2023/01/05 02:39:02;;;;;;;10.50;4.20;;;;;;;1.35;74.87;99590.25;24453;1333;3052969;-61
2023/01/05 02:41:39;;;;;;;8.70;4.60;;;;;;;1.37;74.74;99580.02;24429;1343;3052728;-63
2023/01/05 02:44:10;;;;;;;11.60;4.10;;;;;;;1.34;75.54;99569.20;24475;1340;3052786;-64
2023/01/05 02:46:40;;;;;;;9.10;4.50;;;;;;;1.36;75.67;99560.72;24463;1339;3028084;-62
2023/01/05 02:49:10;;;;;;;12.60;4.80;;;;;;;1.33;75.28;99555.95;24421;1339;3026302;-63
2023/01/05 02:51:42;;;;;;;8.30;4.10;;;;;;;1.17;75.85;99560.42;24484;1335;3052034;-60
2023/01/05 02:54:15;;;;;;;5.40;3.30;;;;;;;1.12;75.96;99553.64;24431;1339;3026466;-63
2023/01/05 02:57:07;;;;;;;7.70;4.00;;;;;;;1.16;76.03;99550.27;24483;1339;3025760;-62
2023/01/05 02:59:40;;;;;;;;;;;;;;;1.16;75.42;99540.44;24521;1336;3050938;-64
2023/01/05 03:02:16;;;;;;;7.20;3.00;;;;;;;1.13;75.63;99540.84;24466;1334;3028587;-65
2023/01/05 03:04:48;;;;;;;5.90;3.40;;;;;;;1.03;75.64;99529.83;24425;1339;3051246;-65
2023/01/05 03:07:21;;;;;;;5.70;3.30;;;;;;;1.00;75.60;99524.21;24415;1342;3026360;-65
2023/01/05 03:09:50;;;;;;;4.70;2.60;;;;;;;0.94;75.94;99520.69;24443;1329;3026815;-61
2023/01/05 03:15:25;;;;;;;5.70;2.60;;;;;;;0.89;76.27;99511.14;24488;1340;3049397;-63
2023/01/05 03:18:16;;;;;;;6.40;3.40;;;;;;;0.93;75.59;99510.02;24398;1332;3069167;-61
2023/01/05 03:20:48;;;;;;;6.20;3.00;;;;;;;0.85;76.46;99511.92;24467;1328;3049833;-63
2023/01/05 03:35:56;;;;;;;3.50;2.20;;;;;;;0.74;77.55;99496.77;24384;1333;3057208;-64
2023/01/05 03:38:39;;;;;;;4.70;2.00;;;;;;;1.27;75.47;99494.30;24365;1340;3026602;-64
2023/01/05 03:41:08;;;;;;;7.10;3.00;;;;;;;1.98;72.72;99485.70;23796;1340;3052800;-63
2023/01/05 03:43:39;;;;;;;5.40;2.70;;;;;;;1.97;71.88;99479.86;24377;1340;3055161;-65
2023/01/05 03:46:11;;;;;;;4.90;2.80;;;;;;;1.66;72.68;99488.92;24523;1329;3026342;-62
2023/01/05 03:48:40;;;;;;;6.00;3.10;;;;;;;1.69;72.72;99483.14;24429;1334;3026553;-60
2023/01/05 03:51:09;;;;;;;4.70;2.40;;;;;;;1.31;73.83;99481.27;24506;1334;3028213;-61
2023/01/05 03:53:41;;;;;;;7.30;3.10;;;;;;;1.21;74.16;99481.13;24508;1324;3026874;-61
2023/01/05 03:56:10;;;;;;;6.50;3.00;;;;;;;1.23;73.93;99477.13;24420;1334;3026030;-61
2023/01/05 03:58:39;;;;;;;5.30;3.20;;;;;;;1.11;74.59;99465.48;24472;1333;3028086;-66
2023/01/05 04:01:08;;;;;;;5.10;2.70;;;;;;;1.03;74.90;99464.10;24498;1334;3029214;-62
2023/01/05 04:03:39;;;;;;;4.10;2.60;;;;;;;0.84;75.81;99460.54;24439;1333;3049091;-64
2023/01/05 04:06:09;;;;;;;5.70;3.10;;;;;;;0.84;75.80;99456.23;24475;1330;3026459;-63
2023/01/05 04:08:39;;;;;;;4.10;2.80;;;;;;;0.77;76.15;99453.61;24492;1334;3025654;-65
2023/01/05 04:11:19;;;;;;;4.80;2.60;;;;;;;0.59;77.47;99450.70;24563;1333;3028805;-64
2023/01/05 04:13:57;;;;;;;5.30;3.10;;;;;;;0.66;76.85;99453.48;24534;1326;3051910;-66
2023/01/05 04:16:27;;;;;;;5.30;2.90;;;;;;;0.64;77.07;99450.42;24493;1327;3025941;-66
2023/01/05 04:18:59;;;;;;;4.20;2.80;;;;;;;0.64;76.58;99445.09;24503;1334;3057145;-66
2023/01/05 04:21:28;;;;;;;4.60;2.70;;;;;;;0.47;77.61;99441.79;24531;1323;3026321;-63
2023/01/05 04:23:57;;;;;;;5.90;2.60;;;;;;;0.43;77.53;99445.86;24492;1332;3050008;-61
2023/01/05 04:26:27;;;;;;;5.40;3.30;;;;;;;0.42;77.47;99444.30;24493;1327;3028721;-63
2023/01/05 04:28:55;;;;;;;4.30;2.70;;;;;;;0.46;77.89;99445.11;24458;1342;3068283;-63
2023/01/05 04:31:29;;;;;;;4.40;2.80;;;;;;;0.47;77.81;99444.57;24504;1332;3028326;-64
2023/01/05 04:33:58;;;;;;;4.60;2.00;;;;;;;0.59;77.37;99438.98;24467;1340;3030546;-64
2023/01/05 04:36:28;;;;;;;4.00;2.50;;;;;;;0.61;76.63;99436.20;24477;1326;3028213;-63
2023/01/05 04:38:58;;;;;;;4.40;3.10;;;;;;;0.52;76.44;99437.21;24463;1341;3028623;-66
2023/01/05 04:41:27;;;;;;;4.60;2.20;;;;;;;0.53;76.58;99435.13;24492;1328;3026135;-65
2023/01/05 04:43:57;;;;;;;4.90;2.80;;;;;;;0.57;76.76;99423.17;24519;1327;3050743;-63
2023/01/05 04:46:26;;;;;;;5.30;2.70;;;;;;;0.62;76.56;99411.84;24547;1333;3024772;-65
2023/01/05 04:48:57;;;;;;;4.10;2.10;;;;;;;0.67;76.19;99412.44;24485;1334;3056085;-63
2023/01/05 04:51:26;;;;;;;5.30;2.60;;;;;;;0.77;75.71;99406.37;24426;1336;3026607;-67
2023/01/05 04:53:55;;;;;;;5.80;2.70;;;;;;;0.67;75.79;99399.68;24456;1335;3049395;-64
2023/01/05 04:56:25;;;;;;;5.80;3.10;;;;;;;0.78;75.44;99402.21;24449;1334;3026844;-64
2023/01/05 04:58:55;;;;;;;10.40;3.10;;;;;;;0.84;75.26;99402.09;24533;1334;3025133;-64
2023/01/05 05:01:26;;;;;;;12.80;4.30;;;;;;;0.89;74.82;99401.27;24487;1334;3049810;-63
2023/01/05 05:03:57;;;;;;;19.70;7.10;;;;;;;0.86;74.73;99393.74;24492;1333;3027396;-63
2023/01/05 05:06:27;;;;;;;29.90;9.00;;;;;;;0.82;75.03;99379.00;24523;1333;3029160;-62
2023/01/05 05:08:57;;;;;;;27.10;8.50;;;;;;;0.95;74.37;99376.83;24545;1334;3026263;-65
2023/01/05 05:11:27;;;;;;;23.40;8.70;;;;;;;0.95;74.27;99370.61;24473;1333;3028288;-61
2023/01/05 05:13:56;;;;;;;24.00;8.30;;;;;;;0.87;74.75;99368.19;24500;1334;3028647;-63
2023/01/05 05:16:26;;;;;;;22.00;8.10;;;;;;;0.88;74.63;99358.52;24461;1341;3051930;-64
2023/01/05 05:18:55;;;;;;;16.90;7.60;;;;;;;0.80;74.78;99344.56;24524;1326;3028038;-63
2023/01/05 05:21:27;;;;;;;15.10;6.30;;;;;;;0.78;75.02;99326.85;24517;1333;3051730;-63
2023/01/05 05:23:56;;;;;;;8.40;3.50;;;;;;;0.76;74.96;99321.21;24519;1333;3028067;-62
2023/01/05 05:26:25;;;;;;;6.90;3.10;;;;;;;0.69;75.29;99315.34;24465;1330;3055482;-64
2023/01/05 05:28:57;;;;;;;5.40;2.70;;;;;;;0.70;75.13;99309.61;24520;1333;3028422;-64
2023/01/05 05:31:26;;;;;;;4.00;2.60;;;;;;;0.61;75.55;99308.45;24558;1334;3028488;-64
2023/01/05 05:33:55;;;;;;;7.00;2.20;;;;;;;0.72;74.84;99294.40;24472;1327;3028000;-64
2023/01/05 05:36:25;;;;;;;5.40;2.30;;;;;;;0.66;75.43;99288.67;24475;1326;3051406;-63
2023/01/05 05:38:55;;;;;;;5.70;2.60;;;;;;;0.72;75.19;99290.61;25426;1334;3026451;-64
2023/01/05 05:41:24;;;;;;;5.80;2.60;;;;;;;0.66;75.32;99290.92;25436;1327;3056056;-62
2023/01/05 05:43:53;;;;;;;6.00;2.60;;;;;;;0.64;75.37;99298.23;25439;1334;3026282;-66
2023/01/05 05:46:22;;;;;;;6.40;2.90;;;;;;;0.68;75.59;99284.32;25423;1334;3049645;-65
2023/01/05 05:48:51;;;;;;;4.50;2.50;;;;;;;0.80;74.94;99284.41;25442;1334;3026597;-63
2023/01/05 05:51:21;;;;;;;4.50;2.90;;;;;;;0.68;75.22;99274.52;25420;1334;3069671;-64
2023/01/05 05:53:50;;;;;;;6.30;2.90;;;;;;;0.62;75.67;99263.94;25424;1330;3026406;-64
2023/01/05 05:56:19;;;;;;;5.90;3.10;;;;;;;0.69;75.65;99253.95;25426;1334;3048051;-65
2023/01/05 05:58:49;;;;;;;9.10;3.00;;;;;;;0.64;75.66;99257.34;25429;1334;3026358;-66
2023/01/05 06:01:18;;;;;;;8.70;3.00;;;;;;;0.72;75.54;99256.83;25426;1334;3024747;-63
2023/01/05 06:03:47;;;;;;;4.30;2.40;;;;;;;0.69;76.06;99257.23;25445;1334;3048477;-65
2023/01/05 06:06:19;;;;;;;4.70;2.60;;;;;;;0.86;75.53;99258.04;25418;1334;3026130;-66
2023/01/05 06:08:48;;;;;;;5.20;2.70;;;;;;;0.76;75.84;99259.64;25444;1334;3026180;-64
2023/01/05 06:11:17;;;;;;;9.60;3.00;;;;;;;0.79;76.03;99254.42;25431;1334;3048299;-63
2023/01/05 06:13:47;;;;;;;9.80;3.60;;;;;;;0.79;76.05;99238.39;25418;1334;3026400;-67
2023/01/05 06:16:16;;;;;;;7.50;3.40;;;;;;;0.82;76.49;99231.05;25423;1326;3051054;-65
2023/01/05 06:18:45;;;;;;;4.00;2.20;;;;;;;0.74;76.99;99226.41;25431;1341;3025865;-66
2023/01/05 06:21:14;;;;;;;8.00;2.70;;;;;;;1.36;75.37;99216.23;25397;1326;3050272;-66
2023/01/05 06:23:43;;;;;;;6.10;2.90;;;;;;;1.77;73.22;99218.02;25434;1333;3027377;-63
2023/01/05 06:26:12;;;;;;;5.50;2.70;;;;;;;1.90;72.83;99216.64;25413;1330;3052727;-65
2023/01/05 06:28:41;;;;;;;6.20;2.80;;;;;;;1.72;73.46;99215.58;25413;1334;3025761;-64
2023/01/05 06:31:10;;;;;;;5.40;2.80;;;;;;;1.67;73.69;99209.16;25436;1327;3025840;-63
2023/01/05 06:33:39;;;;;;;6.70;3.40;;;;;;;1.45;74.81;99216.84;25427;1328;3050858;-63
2023/01/05 06:36:08;;;;;;;8.20;3.20;;;;;;;1.48;75.09;99206.75;25426;1334;3026202;-64
2023/01/05 06:38:38;;;;;;;8.90;3.90;;;;;;;1.50;75.13;99203.24;25432;1334;3051856;-65
2023/01/05 06:41:06;;;;;;;11.40;3.80;;;;;;;1.29;76.31;99191.38;25442;1328;3025734;-62
2023/01/05 06:43:36;;;;;;;8.40;3.50;;;;;;;1.33;76.66;99188.36;25420;1334;3055653;-65
2023/01/05 06:46:05;;;;;;;8.70;3.30;;;;;;;1.40;76.60;99176.08;25411;1326;3027177;-64
2023/01/05 06:48:34;;;;;;;8.80;4.10;;;;;;;1.37;76.83;99162.54;25435;1327;3049359;-64
2023/01/05 06:51:03;;;;;;;9.30;4.00;;;;;;;1.38;77.04;99155.25;25440;1334;3026534;-62
2023/01/05 06:53:32;;;;;;;6.40;3.40;;;;;;;1.37;77.45;99149.06;25415;1333;3068485;-63
2023/01/05 06:56:01;;;;;;;7.60;3.60;;;;;;;1.36;77.19;99151.16;25432;1334;3025929;-63
2023/01/05 06:58:30;;;;;;;10.20;3.90;;;;;;;1.23;77.97;99139.12;25456;1330;3025639;-64
2023/01/05 07:00:59;;;;;;;6.50;3.40;;;;;;;1.20;78.28;99133.47;25419;1335;3068307;-64
2023/01/05 07:03:28;;;;;;;8.30;3.50;;;;;;;1.18;78.59;99127.00;25441;1334;3027504;-63
2023/01/05 07:05:59;;;;;;;7.10;3.30;;;;;;;1.09;79.07;99131.19;25431;1324;3048398;-63
2023/01/05 07:08:28;;;;;;;4.50;2.30;;;;;;;1.10;79.27;99121.16;25428;1334;3026301;-64
2023/01/05 07:11:01;;;;;;;7.10;2.90;;;;;;;1.66;77.75;99120.63;25452;1333;3052350;-65
2023/01/05 07:13:30;;;;;;;6.50;2.50;;;;;;;2.20;75.61;99103.93;25439;1338;3027045;-64
2023/01/05 07:15:59;;;;;;;4.70;2.70;;;;;;;2.07;75.38;99113.14;25432;1326;3049345;-62
2023/01/05 07:18:27;;;;;;;7.70;3.00;;;;;;;1.91;75.98;99112.80;25429;1326;3026427;-62
2023/01/05 07:20:59;;;;;;;4.90;2.90;;;;;;;1.78;76.27;99103.67;25441;1329;3052977;-64
2023/01/05 07:23:28;;;;;;;5.90;3.40;;;;;;;1.71;77.15;99089.75;25420;1334;3026067;-62
2023/01/05 07:26:00;;;;;;;8.50;4.00;;;;;;;1.58;78.01;99090.83;25429;1327;3026989;-66
2023/01/05 07:28:29;;;;;;;10.10;3.80;;;;;;;1.60;78.32;99093.84;25425;1327;3028132;-64
2023/01/05 07:30:58;;;;;;;7.80;3.90;;;;;;;1.64;78.20;99096.86;25411;1326;3025639;-65
2023/01/05 07:33:27;;;;;;;9.20;3.70;;;;;;;1.44;79.35;99102.44;25421;1326;3052059;-63
2023/01/05 07:35:59;;;;;;;6.70;3.40;;;;;;;1.37;80.30;99095.20;25445;1327;3026139;-63
2023/01/05 07:38:30;;;;;;;8.50;3.60;;;;;;;1.51;80.26;99076.15;25438;1334;3051129;-62
2023/01/05 07:40:59;;;;;;;8.30;4.30;;;;;;;1.51;80.05;99093.93;25432;1334;3027336;-62
2023/01/05 07:43:29;;;;;;;5.90;3.00;;;;;;;1.40;80.76;99079.76;25391;1343;3025644;-63
2023/01/05 07:45:59;;;;;;;6.20;3.20;;;;;;;1.98;79.70;99079.72;25397;1333;3027179;-63
2023/01/05 07:48:28;;;;;;;8.10;3.70;;;;;;;2.30;77.26;99074.76;25444;1334;3050700;-63
2023/01/05 07:51:01;;;;;;;11.90;4.20;;;;;;;2.44;76.56;99077.72;25407;1317;3024738;-62
2023/01/05 07:53:31;;;;;;;8.30;3.80;;;;;;;2.36;76.48;99058.30;25416;1334;3049793;-64
2023/01/05 07:56:00;;;;;;;5.30;3.40;;;;;;;2.18;77.62;99063.20;25433;1330;3026350;-63
2023/01/05 07:58:29;;;;;;;9.60;3.60;;;;;;;2.25;77.48;99051.41;25419;1327;3026423;-64
2023/01/05 08:01:05;;;;;;;10.80;4.50;;;;;;;2.21;77.77;99048.58;25430;1332;3051095;-61
2023/01/05 08:03:34;;;;;;;8.00;4.90;;;;;;;2.21;78.01;99032.02;25435;1334;3052098;-62
2023/01/05 08:06:09;;;;;;;7.90;4.20;;;;;;;2.05;78.84;99035.29;25427;1316;3026515;-63
2023/01/05 08:08:38;;;;;;;8.60;4.20;;;;;;;1.98;79.32;99033.27;25415;1334;3051164;-62
2023/01/05 08:11:08;;;;;;;9.20;4.50;;;;;;;1.95;79.43;99039.77;25430;1334;3025745;-65
2023/01/05 08:16:27;;;;;;;10.20;4.30;;;;;;;2.06;79.40;99021.62;25402;1326;3051509;-64
2023/01/05 08:18:56;;;;;;;7.30;4.40;;;;;;;2.04;79.57;99010.62;25433;1325;3025646;-63
2023/01/05 08:21:25;;;;;;;7.80;2.90;;;;;;;2.07;79.99;99000.68;25441;1333;3026395;-63
2023/01/05 08:23:54;;;;;;;6.60;3.20;;;;;;;2.57;78.92;98987.89;25423;1333;3051026;-64
2023/01/05 08:26:22;;;;;;;8.50;3.70;;;;;;;2.93;76.25;98983.15;25431;1325;3025633;-64
2023/01/05 08:28:52;;;;;;;9.40;4.20;;;;;;;2.97;76.19;98974.18;25434;1334;3051756;-69
2023/01/05 08:31:22;;;;;;;10.80;4.70;;;;;;;2.74;76.46;98971.23;25434;1334;3026584;-64
2023/01/05 08:33:58;;;;;;;6.90;3.70;;;;;;;2.65;77.29;98962.39;25444;1324;3052004;-64
2023/01/05 08:36:30;;;;;;;;;;;;;;;2.59;77.71;98943.41;25418;1332;3053744;-68
2023/01/05 08:39:00;;;;;;;11.00;4.10;;;;;;;2.48;78.22;98939.65;25431;1330;3026350;-65
2023/01/05 08:41:34;;;;;;;7.00;4.00;;;;;;;2.39;78.71;98933.21;25422;1333;3052789;-65
2023/01/05 08:44:05;;;;;;;11.30;4.70;;;;;;;2.26;79.56;98945.27;25440;1334;3025355;-68
2023/01/05 08:46:35;;;;;;;9.10;4.90;;;;;;;2.24;79.81;98924.59;25423;1339;3027089;-64
2023/01/05 08:49:05;;;;;;;8.70;5.00;;;;;;;2.37;79.57;98925.52;25438;1334;3026225;-68
2023/01/05 08:51:34;;;;;;;8.00;4.70;;;;;;;2.36;79.46;98922.46;25424;1331;3025614;-65
2023/01/05 08:54:03;;;;;;;10.80;4.70;;;;;;;2.32;79.71;98918.27;25450;1332;3025849;-63
2023/01/05 08:56:32;;;;;;;7.00;3.30;;;;;;;2.30;80.15;98915.72;25430;1324;3047642;-67
2023/01/05 08:59:01;;;;;;;5.20;3.10;;;;;;;2.60;79.30;98912.76;25444;1333;3026605;-67
2023/01/05 09:01:30;;;;;;;7.30;3.70;;;;;;;3.02;77.22;98899.92;25419;1326;3068524;-67
2023/01/05 09:03:59;;;;;;;6.80;4.20;;;;;;;3.17;76.31;98897.28;25442;1334;3025868;-69
2023/01/05 09:06:28;;;;;;;7.90;3.70;;;;;;;3.10;76.47;98882.66;25428;1334;3048583;-64
2023/01/05 09:08:57;;;;;;;10.10;4.50;;;;;;;2.91;77.25;98873.89;25435;1333;3026445;-67
2023/01/05 09:11:26;;;;;;;7.80;4.00;;;;;;;2.98;77.31;98879.48;25436;1334;3052138;-68
2023/01/05 09:13:57;;;;;;;9.40;4.10;;;;;;;3.01;77.39;98861.05;25439;1332;3026050;-65
2023/01/05 09:16:28;;;;;;;8.40;3.70;;;;;;;2.87;78.50;98858.81;25423;1331;3051856;-64
2023/01/05 09:18:57;;;;;;;11.70;4.30;;;;;;;2.78;79.06;98855.52;25453;1332;3026546;-67
2023/01/05 09:21:26;;;;;;;9.60;4.90;;;;;;;2.78;79.28;98842.41;25433;1325;3025089;-67
2023/01/05 09:23:55;;;;;;;6.30;4.20;;;;;;;2.59;80.38;98837.74;25440;1332;3026342;-68
2023/01/05 09:26:24;;;;;;;7.00;3.40;;;;;;;2.67;80.53;98827.75;25406;1325;3051680;-68
2023/01/05 09:28:53;;;;;;;9.90;4.00;;;;;;;2.79;80.18;98818.46;25451;1324;3025807;-64
2023/01/05 09:31:22;;;;;;;6.10;2.40;;;;;;;2.65;81.29;98808.29;25421;1334;3051065;-65
2023/01/05 09:33:51;;;;;;;5.50;2.90;;;;;;;3.11;80.38;98803.52;25451;1324;3026207;-65
2023/01/05 09:36:20;;;;;;;5.30;3.50;;;;;;;3.54;78.39;98807.10;25430;1340;3052518;-63
2023/01/05 09:38:51;;;;;;;8.40;4.40;;;;;;;3.67;77.52;98781.67;25442;1327;3027228;-61
2023/01/05 09:41:30;;;;;;;12.10;3.70;;;;;;;3.69;78.08;98781.90;25466;1325;3026775;-65
2023/01/05 09:44:05;;;;;;;6.20;3.10;;;;;;;3.23;80.22;98791.45;25430;1340;3049910;-71
2023/01/05 09:46:38;;;;;;;6.50;3.60;;;;;;;3.09;82.12;98792.37;25404;1340;3068123;-64
2023/01/05 09:49:20;;;;;;;7.10;3.60;;;;;;;3.09;82.66;98766.77;25450;1334;3025976;-64
2023/01/05 09:51:52;;;;;;;7.40;3.90;;;;;;;2.98;84.70;98748.89;25418;1331;3056526;-68
2023/01/05 09:54:22;;;;;;;7.00;4.30;;;;;;;2.86;86.48;98757.86;25369;1327;3027378;-64
2023/01/05 09:56:51;;;;;;;6.30;3.40;;;;;;;2.77;87.95;98750.77;25443;1326;3026736;-64
2023/01/05 09:59:24;;;;;;;5.20;2.80;;;;;;;3.17;87.71;98741.49;25391;1334;3056444;-65
2023/01/05 10:01:53;;;;;;;7.60;3.80;;;;;;;3.38;85.37;98722.81;25450;1332;3027101;-62
2023/01/05 10:04:23;;;;;;;9.10;4.00;;;;;;;3.39;85.82;98708.73;25368;1326;3026695;-61
2023/01/05 10:06:56;;;;;;;6.80;3.90;;;;;;;3.36;85.80;98709.91;25423;1324;3026054;-64
2023/01/05 10:09:30;;;;;;;10.20;4.20;;;;;;;3.14;87.94;98708.09;25422;1334;3027155;-68
2023/01/05 10:15:07;;;;;;;9.00;4.50;;;;;;;2.92;90.33;98689.61;25424;1334;3068187;-66
2023/01/05 10:17:40;;;;;;;6.60;3.50;;;;;;;2.84;91.67;98687.70;25348;1334;3050614;-63
2023/01/05 10:20:19;;;;;;;7.70;4.10;;;;;;;3.24;91.11;98687.41;25360;1334;3056262;-67
2023/01/05 10:22:54;;;;;;;9.40;3.90;;;;;;;3.48;89.24;98680.79;25424;1334;3051925;-66
2023/01/05 10:25:37;;;;;;;8.00;3.40;;;;;;;3.68;88.61;98659.00;25371;1328;3051475;-70
2023/01/05 10:28:37;;;;;;;8.10;4.30;;;;;;;3.60;89.44;98651.02;25329;1339;3051954;-67
2023/01/05 10:31:23;;;;;;;5.70;3.80;;;;;;;3.16;91.15;98650.53;25421;1328;3051724;-64
2023/01/05 10:34:01;;;;;;;9.80;4.90;;;;;;;3.12;92.28;98654.70;25437;1334;3049275;-67
2023/01/05 10:36:33;;;;;;;5.40;3.30;;;;;;;3.00;93.61;98637.04;25359;1327;3068536;-66
2023/01/05 10:39:11;;;;;;;6.20;3.80;;;;;;;3.32;93.51;98632.73;25417;1333;3026243;-68
2023/01/05 10:42:02;;;;;;;9.50;4.30;;;;;;;3.74;91.22;98623.36;25441;1334;3055554;-67
2023/01/05 10:44:34;;;;;;;8.50;4.10;;;;;;;3.68;90.72;98623.80;25430;1325;3051798;-65
2023/01/05 10:47:07;;;;;;;7.30;3.70;;;;;;;3.60;91.75;98623.48;25430;1334;3026358;-67
2023/01/05 10:49:36;;;;;;;7.80;4.70;;;;;;;3.41;92.59;98598.71;25367;1336;3025807;-67
2023/01/05 10:52:05;;;;;;;10.40;5.50;;;;;;;3.23;94.19;98589.33;25447;1331;3024715;-65
2023/01/05 10:54:42;;;;;;;7.50;4.20;;;;;;;3.17;94.97;98600.14;25417;1324;3051729;-64
2023/01/05 10:57:32;;;;;;;10.90;4.50;;;;;;;3.45;95.26;98589.21;25427;1324;3052769;-63
2023/01/05 11:00:03;;;;;;;8.40;4.70;;;;;;;3.79;93.27;98581.01;25440;1330;3052212;-65
2023/01/05 11:02:38;;;;;;;8.70;4.80;;;;;;;3.85;93.03;98567.26;25431;1327;3026356;-64
2023/01/05 11:05:10;;;;;;;10.50;5.40;;;;;;;3.64;92.84;98576.90;25425;1333;3067461;-65
2023/01/05 11:07:52;;;;;;;11.60;5.60;;;;;;;3.72;93.31;98565.80;25437;1334;3025890;-64
2023/01/05 11:10:32;;;;;;;13.90;6.40;;;;;;;3.63;93.74;98567.23;25416;1334;3056943;-64
2023/01/05 11:13:26;;;;;;;8.30;4.10;;;;;;;3.52;94.77;98577.25;25429;1334;3052349;-66
2023/01/05 11:16:19;;;;;;;8.10;4.50;;;;;;;4.09;93.77;98575.31;25383;1337;3052821;-65
2023/01/05 11:18:51;;;;;;;12.10;4.70;;;;;;;4.25;91.74;98579.72;25429;1337;3050893;-66
2023/01/05 11:21:21;;;;;;;13.00;5.70;;;;;;;4.09;92.05;98572.15;25406;1327;3026954;-68
2023/01/05 11:23:53;;;;;;;9.30;5.10;;;;;;;3.96;92.93;98587.89;25416;1332;3026320;-66
2023/01/05 11:26:24;;;;;;;9.30;5.10;;;;;;;3.92;92.95;98552.73;25416;1333;3026792;-63
2023/01/05 11:29:08;;;;;;;13.10;5.70;;;;;;;3.68;94.47;98542.23;25440;1334;3026315;-66
2023/01/05 11:31:42;;;;;;;9.30;4.80;;;;;;;3.65;95.38;98550.52;25459;1330;3056927;-64
2023/01/05 11:34:14;;;;;;;7.90;4.20;;;;;;;4.18;94.71;98519.91;25436;1334;3051583;-65
2023/01/05 11:36:43;;;;;;;10.40;5.00;;;;;;;4.37;92.52;98522.27;25453;1333;3025088;-65
2023/01/05 11:39:18;;;;;;;10.90;4.70;;;;;;;4.49;92.12;98515.06;25348;1336;3026339;-68
2023/01/05 11:41:47;;;;;;;11.70;5.10;;;;;;;4.34;92.13;98522.06;25408;1334;3053082;-66
2023/01/05 11:44:21;;;;;;;13.30;6.90;;;;;;;3.97;94.21;98531.88;25437;1334;3025653;-64
2023/01/05 11:46:50;;;;;;;10.10;5.30;;;;;;;3.99;95.41;98505.60;25378;1334;3025994;-65
2023/01/05 11:49:19;;;;;;;7.60;4.30;;;;;;;3.91;95.58;98509.45;25455;1324;3026301;-65
2023/01/05 11:51:48;;;;;;;8.50;4.60;;;;;;;4.22;95.53;98501.16;25434;1334;3052585;-65
2023/01/05 11:54:35;;;;;;;10.60;5.70;;;;;;;4.79;92.76;98497.58;25403;1324;3025853;-65
2023/01/05 11:57:15;;;;;;;9.30;4.90;;;;;;;4.84;91.72;98499.21;25435;1334;3052221;-64
2023/01/05 11:59:45;;;;;;;13.30;6.30;;;;;;;4.64;92.43;98493.70;25429;1333;3052314;-71
2023/01/05 12:02:20;;;;;;;10.90;6.70;;;;;;;4.28;93.69;98491.34;25424;1334;3025772;-65
2023/01/05 12:05:07;;;;;;;11.60;6.00;;;;;;;4.22;94.97;98489.73;25448;1324;3051070;-67
2023/01/05 12:07:36;;;;;;;8.30;4.60;;;;;;;4.19;95.15;98460.39;25433;1330;3048959;-68
2023/01/05 12:10:26;;;;;;;10.70;5.10;;;;;;;4.83;94.46;98458.15;25371;1337;3026461;-67
2023/01/05 12:13:07;;;;;;;8.30;5.80;;;;;;;5.14;92.08;98452.68;25438;1330;3051347;-69
2023/01/05 12:15:43;;;;;;;7.60;4.70;;;;;;;5.07;91.63;98440.25;25412;1334;3048855;-67
2023/01/05 12:18:48;;;;;;;9.30;5.80;;;;;;;4.93;92.11;98433.51;25425;1331;3068362;-65
2023/01/05 12:21:29;;;;;;;12.20;5.80;;;;;;;4.72;92.50;98448.13;25378;1334;3050532;-65